createdAt,value
2023-02-03T00:02:07.516Z,0.65
2023-02-03T00:04:34.476Z,0.70
2023-02-03T00:07:01.352Z,0.80
2023-02-03T00:09:28.175Z,0.85
2023-02-03T00:11:55.634Z,0.90
2023-02-03T00:14:22.597Z,0.52
2023-02-03T00:16:49.763Z,0.80
2023-02-03T00:19:17.732Z,0.77
2023-02-03T00:21:44.963Z,0.60
2023-02-03T00:24:12.265Z,1.13
2023-02-03T00:26:43.629Z,1.58
2023-02-03T00:29:11.014Z,2.22
2023-02-03T00:31:38.225Z,2.67
2023-02-03T00:34:05.226Z,3.25
2023-02-03T00:36:32.616Z,2.15
2023-02-03T00:39:01.537Z,2.40
2023-02-03T00:41:31.244Z,2.00
2023-02-03T00:43:58.077Z,2.65
2023-02-03T00:46:24.918Z,3.10
2023-02-03T00:48:52.172Z,2.72
2023-02-03T00:51:19.195Z,3.38
2023-02-03T00:53:47.182Z,2.95
2023-02-03T00:56:14.011Z,3.10
2023-02-03T00:58:41.482Z,2.65
2023-02-03T01:01:08.523Z,3.58
2023-02-03T01:03:35.547Z,2.85
2023-02-03T01:06:17.691Z,2.90
2023-02-03T01:08:45.005Z,2.25
2023-02-03T01:11:17.753Z,2.75
2023-02-03T01:13:44.755Z,2.30
2023-02-03T01:16:13.835Z,2.63
2023-02-03T01:18:41.546Z,2.67
2023-02-03T01:21:15.295Z,2.10
2023-02-03T01:23:43.074Z,2.45
2023-02-03T01:26:14.072Z,2.47
2023-02-03T01:28:42.168Z,2.90
2023-02-03T01:31:14.641Z,2.65
2023-02-03T01:33:46.318Z,2.28
2023-02-03T01:36:15.084Z,3.22
2023-02-03T01:38:41.973Z,3.45
2023-02-03T01:41:13.159Z,2.45
2023-02-03T01:43:43.305Z,3.67
2023-02-03T01:46:19.155Z,3.28
2023-02-03T01:48:46.541Z,4.13
2023-02-03T01:51:13.412Z,4.47
2023-02-03T01:53:41.059Z,5.32
2023-02-03T01:56:09.471Z,5.10
2023-02-03T01:58:40.814Z,4.57
2023-02-03T02:01:08.308Z,5.38
2023-02-03T02:03:41.383Z,5.65
2023-02-03T02:06:10.898Z,5.85
2023-02-03T02:08:40.163Z,5.85
2023-02-03T02:11:08.176Z,5.38
2023-02-03T02:13:36.337Z,6.28
2023-02-03T02:16:14.960Z,6.70
2023-02-03T02:19:16.232Z,7.25
2023-02-03T02:21:54.055Z,7.97
2023-02-03T02:24:48.663Z,9.63
2023-02-03T02:27:48.807Z,8.57
2023-02-03T02:30:43.361Z,6.68
2023-02-03T02:33:44.136Z,7.30
2023-02-03T02:36:35.145Z,6.90
2023-02-03T02:39:12.133Z,7.90
2023-02-03T02:41:52.465Z,6.15
2023-02-03T02:44:22.342Z,6.30
2023-02-03T02:47:01.318Z,6.40
2023-02-03T02:49:51.105Z,5.15
2023-02-03T02:52:19.073Z,7.65
2023-02-03T02:54:52.452Z,7.43
2023-02-03T02:57:21.575Z,7.28
2023-02-03T02:59:49.123Z,6.80
2023-02-03T03:02:17.160Z,7.35
2023-02-03T03:04:46.715Z,6.95
2023-02-03T03:07:22.423Z,7.85
2023-02-03T03:09:58.529Z,5.78
2023-02-03T03:12:32.085Z,5.38
2023-02-03T03:15:03.721Z,5.32
2023-02-03T03:17:34.907Z,5.00
2023-02-03T03:20:12.564Z,4.30
2023-02-03T03:22:45.653Z,4.43
2023-02-03T03:25:19.582Z,2.95
2023-02-03T03:28:02.824Z,3.30
2023-02-03T03:30:34.812Z,3.78
2023-02-03T03:33:02.564Z,4.95
2023-02-03T03:35:39.203Z,4.07
2023-02-03T03:38:44.987Z,4.15
2023-02-03T03:41:30.242Z,4.60
2023-02-03T03:44:01.617Z,4.90
2023-02-03T03:46:35.573Z,9.90
2023-02-03T03:49:06.164Z,6.45
2023-02-03T03:52:05.225Z,5.07
2023-02-03T03:54:33.897Z,5.03
2023-02-03T03:57:15.168Z,4.43
2023-02-03T03:59:46.645Z,4.45
2023-02-03T04:02:14.587Z,4.68
2023-02-03T04:04:43.461Z,5.07
2023-02-03T04:07:10.363Z,8.27
2023-02-03T04:09:37.414Z,7.60
2023-02-03T04:12:06.055Z,8.52
2023-02-03T04:14:35.571Z,6.05
2023-02-03T04:17:02.452Z,6.35
2023-02-03T04:19:29.722Z,5.03
2023-02-03T04:21:57.462Z,5.15
2023-02-03T04:24:24.253Z,4.63
2023-02-03T04:26:51.901Z,4.75
2023-02-03T04:29:18.693Z,5.15
2023-02-03T04:31:45.497Z,5.75
2023-02-03T04:34:12.782Z,5.88
2023-02-03T04:36:39.679Z,5.20
2023-02-03T04:39:06.476Z,5.18
2023-02-03T04:41:33.732Z,4.88
2023-02-03T04:44:00.556Z,4.18
2023-02-03T04:46:27.402Z,4.65
2023-02-03T04:48:54.599Z,4.55
2023-02-03T04:51:21.477Z,3.45
2023-02-03T04:53:48.473Z,3.45
2023-02-03T04:56:16.437Z,4.22
2023-02-03T04:58:43.657Z,4.70
2023-02-03T05:01:11.031Z,5.63
2023-02-03T05:03:37.976Z,6.13
2023-02-03T05:06:05.693Z,4.75
2023-02-03T05:08:32.818Z,4.40
2023-02-03T05:11:02.029Z,3.72
2023-02-03T05:13:29.797Z,2.85
2023-02-03T05:15:56.981Z,3.25
2023-02-03T05:18:24.295Z,2.50
2023-02-03T05:20:51.543Z,4.00
2023-02-03T05:23:18.473Z,5.25
2023-02-03T05:25:46.012Z,7.72
2023-02-03T05:28:12.910Z,4.78
2023-02-03T05:30:39.810Z,4.88
2023-02-03T05:33:06.960Z,6.93
2023-02-03T05:35:34.305Z,6.13
2023-02-03T05:38:01.216Z,6.85
2023-02-03T05:40:46.537Z,7.82
2023-02-03T05:43:13.488Z,6.18
2023-02-03T05:45:40.324Z,6.75
2023-02-03T05:48:10.060Z,9.90
2023-02-03T05:50:38.706Z,9.70
2023-02-03T05:53:07.033Z,8.65
2023-02-03T05:55:34.525Z,10.18
2023-02-03T05:58:01.488Z,7.70
2023-02-03T06:00:29.633Z,8.43
2023-02-03T06:02:59.074Z,8.10
2023-02-03T06:05:26.869Z,8.48
2023-02-03T06:07:54.600Z,6.63
2023-02-03T06:10:22.028Z,9.73
2023-02-03T06:12:49.812Z,8.55
2023-02-03T06:15:16.984Z,9.73
2023-02-03T06:17:48.373Z,10.38
2023-02-03T06:20:18.044Z,11.95
2023-02-03T06:22:45.392Z,21.25
2023-02-03T06:25:14.372Z,17.80
2023-02-03T06:27:42.433Z,17.48
2023-02-03T06:30:11.358Z,14.73
2023-02-03T06:32:38.366Z,13.95
2023-02-03T06:35:05.293Z,11.88
2023-02-03T06:37:32.523Z,11.38
2023-02-03T06:39:59.343Z,10.90
2023-02-03T06:42:26.155Z,11.20
2023-02-03T06:44:53.643Z,9.10
2023-02-03T06:47:20.661Z,9.52
2023-02-03T06:49:47.999Z,9.27
2023-02-03T06:52:15.641Z,8.68
2023-02-03T06:54:42.477Z,9.52
2023-02-03T06:57:09.315Z,9.43
2023-02-03T06:59:36.100Z,8.23
2023-02-03T07:02:02.947Z,9.63
2023-02-03T07:04:30.255Z,8.55
2023-02-03T07:06:57.772Z,9.82
2023-02-03T07:09:25.136Z,9.55
2023-02-03T07:11:51.940Z,8.45
2023-02-03T07:14:18.933Z,8.18
2023-02-03T07:16:45.800Z,10.15
2023-02-03T07:19:12.773Z,8.10
2023-02-03T07:21:39.520Z,8.82
2023-02-03T07:24:06.905Z,8.82
2023-02-03T07:26:33.739Z,8.13
2023-02-03T07:29:00.877Z,7.55
2023-02-03T07:31:27.960Z,5.75
2023-02-03T07:33:54.776Z,5.10
2023-02-03T07:36:21.931Z,5.05
2023-02-03T07:38:49.149Z,6.18
2023-02-03T07:41:18.058Z,5.85
2023-02-03T07:43:45.301Z,5.88
2023-02-03T07:46:12.414Z,6.68
2023-02-03T07:48:39.265Z,5.78
2023-02-03T07:51:06.177Z,4.95
2023-02-03T07:53:33.513Z,7.47
2023-02-03T07:56:04.011Z,8.57
2023-02-03T07:58:31.801Z,4.80
2023-02-03T08:00:59.599Z,3.92
2023-02-03T08:03:26.526Z,3.92
2023-02-03T08:05:54.225Z,4.88
2023-02-03T08:08:21.058Z,5.53
2023-02-03T08:10:48.255Z,6.07
2023-02-03T08:13:15.115Z,5.72
2023-02-03T08:15:41.965Z,6.40
2023-02-03T08:18:09.787Z,9.95
2023-02-03T08:20:36.659Z,8.65
2023-02-03T08:23:03.884Z,4.93
2023-02-03T08:25:31.124Z,4.10
2023-02-03T08:27:58.023Z,3.53
2023-02-03T08:30:25.991Z,3.38
2023-02-03T08:32:53.362Z,3.80
2023-02-03T08:35:20.149Z,3.10
2023-02-03T08:37:47.046Z,3.45
2023-02-03T08:40:16.200Z,3.05
2023-02-03T08:42:43.399Z,4.30
2023-02-03T08:45:10.393Z,3.53
2023-02-03T08:47:38.038Z,4.80
2023-02-03T08:50:07.777Z,5.82
2023-02-03T08:52:34.622Z,5.00
2023-02-03T08:55:02.000Z,6.28
2023-02-03T08:57:33.738Z,4.65
2023-02-03T09:00:01.168Z,3.80
2023-02-03T09:02:27.964Z,4.63
2023-02-03T09:04:54.962Z,4.60
2023-02-03T09:07:22.003Z,4.10
2023-02-03T09:09:49.467Z,3.30
2023-02-03T09:12:17.397Z,2.95
2023-02-03T09:14:44.175Z,3.13
2023-02-03T09:17:10.991Z,2.78
2023-02-03T09:19:37.836Z,1.85
2023-02-03T09:22:05.519Z,2.20
2023-02-03T09:24:32.436Z,1.85
2023-02-03T09:27:01.155Z,1.33
2023-02-03T09:29:28.515Z,1.48
2023-02-03T09:31:55.484Z,1.63
2023-02-03T09:34:22.845Z,1.60
2023-02-03T09:36:51.428Z,2.78
2023-02-03T09:39:18.709Z,1.75
2023-02-03T09:42:03.465Z,2.70
2023-02-03T09:44:49.160Z,2.05
2023-02-03T09:47:22.873Z,2.08
2023-02-03T09:49:57.187Z,2.60
2023-02-03T09:52:39.420Z,4.00
2023-02-03T09:55:34.015Z,4.13
2023-02-03T09:58:09.033Z,4.15
2023-02-03T10:00:41.652Z,3.33
2023-02-03T10:03:27.904Z,3.80
2023-02-03T10:06:12.757Z,3.58
2023-02-03T10:09:24.569Z,18.85
2023-02-03T10:12:02.074Z,14.35
2023-02-03T10:14:35.254Z,6.20
2023-02-03T10:17:23.488Z,5.35
2023-02-03T10:19:56.953Z,5.85
2023-02-03T10:22:28.472Z,6.20
2023-02-03T10:25:03.419Z,5.93
2023-02-03T10:27:32.993Z,6.80
2023-02-03T10:30:17.270Z,6.10
2023-02-03T10:32:44.103Z,6.47
2023-02-03T10:35:15.542Z,6.53
2023-02-03T10:37:52.089Z,6.80
2023-02-03T10:40:26.649Z,6.32
2023-02-03T10:43:12.343Z,6.38
2023-02-03T10:45:40.371Z,4.30
2023-02-03T10:48:14.863Z,4.63
2023-02-03T10:50:48.864Z,4.57
2023-02-03T10:53:18.828Z,4.28
2023-02-03T10:55:48.680Z,4.70
2023-02-03T10:58:22.298Z,4.53
2023-02-03T11:00:56.886Z,5.60
2023-02-03T11:03:28.225Z,5.38
2023-02-03T11:06:11.927Z,4.95
2023-02-03T11:08:43.124Z,6.15
2023-02-03T11:11:14.717Z,4.72
2023-02-03T11:13:41.730Z,5.70
2023-02-03T11:16:20.790Z,5.60
2023-02-03T11:18:50.389Z,5.30
2023-02-03T11:21:27.768Z,5.32
2023-02-03T11:23:56.723Z,4.60
2023-02-03T11:26:27.858Z,5.13
2023-02-03T11:28:58.540Z,5.20
2023-02-03T11:31:28.686Z,5.28
2023-02-03T11:34:03.563Z,4.75
2023-02-03T11:36:32.848Z,4.80
2023-02-03T11:39:35.486Z,4.45
2023-02-03T11:42:03.554Z,4.32
2023-02-03T11:44:33.652Z,4.50
2023-02-03T11:47:11.853Z,4.65
2023-02-03T11:50:10.470Z,4.15
2023-02-03T11:52:52.295Z,3.80
2023-02-03T11:56:05.941Z,5.60
2023-02-03T11:58:50.917Z,5.53
2023-02-03T12:01:58.644Z,5.70
2023-02-03T12:04:55.426Z,4.53
2023-02-03T12:07:31.318Z,3.97
2023-02-03T12:10:16.375Z,3.72
2023-02-03T12:13:10.489Z,3.85
2023-02-03T12:16:08.913Z,3.80
2023-02-03T12:19:05.602Z,3.35
2023-02-03T12:22:00.619Z,3.40
2023-02-03T12:24:33.094Z,3.47
2023-02-03T12:27:22.309Z,3.70
2023-02-03T12:30:02.028Z,3.75
2023-02-03T12:32:34.053Z,3.83
2023-02-03T12:35:18.843Z,4.03
2023-02-03T12:38:05.463Z,3.58
2023-02-03T12:40:37.579Z,3.58
2023-02-03T12:43:39.585Z,3.42
2023-02-03T12:46:16.970Z,3.17
2023-02-03T12:48:56.905Z,3.35
2023-02-03T12:51:45.550Z,3.53
2023-02-03T12:54:36.797Z,3.85
2023-02-03T12:57:22.032Z,3.72
2023-02-03T13:00:13.610Z,3.92
2023-02-03T13:03:03.890Z,3.35
2023-02-03T13:05:42.885Z,4.13
2023-02-03T13:08:36.801Z,5.18
2023-02-03T13:11:19.915Z,4.95
2023-02-03T13:13:52.043Z,5.05
2023-02-03T13:16:25.259Z,5.45
2023-02-03T13:19:02.005Z,4.60
2023-02-03T13:21:29.166Z,4.72
2023-02-03T13:23:56.377Z,5.05
2023-02-03T13:26:23.084Z,3.95
2023-02-03T13:29:15.393Z,3.88
2023-02-03T13:32:02.479Z,4.20
2023-02-03T13:34:32.085Z,4.57
2023-02-03T13:37:34.309Z,4.90
2023-02-03T13:40:16.373Z,3.58
2023-02-03T13:42:52.921Z,4.63
2023-02-03T13:45:38.871Z,4.47
2023-02-03T13:48:18.023Z,4.68
2023-02-03T13:50:46.370Z,5.75
2023-02-03T13:53:19.325Z,4.70
2023-02-03T13:55:58.391Z,4.68
2023-02-03T13:58:31.217Z,4.60
2023-02-03T14:01:05.889Z,4.60
2023-02-03T14:03:35.488Z,12.57
2023-02-03T14:06:03.583Z,5.90
2023-02-03T14:08:30.393Z,4.65
2023-02-03T14:11:31.633Z,4.82
2023-02-03T14:14:04.518Z,6.13
2023-02-03T14:16:36.151Z,6.65
2023-02-03T14:19:03.743Z,8.68
2023-02-03T14:21:43.078Z,9.85
2023-02-03T14:24:11.957Z,13.50
2023-02-03T14:26:45.809Z,16.20
2023-02-03T14:29:35.224Z,11.90
2023-02-03T14:32:14.285Z,10.35
2023-02-03T14:34:42.673Z,13.13
2023-02-03T14:37:14.297Z,13.80
2023-02-03T14:39:41.092Z,13.10
2023-02-03T14:42:38.568Z,12.50
2023-02-03T14:45:11.161Z,19.05
2023-02-03T14:48:13.335Z,16.20
2023-02-03T14:51:17.222Z,13.15
2023-02-03T14:53:50.428Z,10.23
2023-02-03T14:56:26.403Z,9.77
2023-02-03T14:58:58.505Z,10.23
2023-02-03T15:01:37.673Z,8.77
2023-02-03T15:04:14.107Z,8.45
2023-02-03T15:06:47.108Z,9.60
2023-02-03T15:09:39.571Z,8.70
2023-02-03T15:12:24.107Z,10.23
2023-02-03T15:14:50.990Z,8.40
2023-02-03T15:17:28.976Z,15.93
2023-02-03T15:19:55.975Z,14.48
2023-02-03T15:22:27.833Z,13.48
2023-02-03T15:25:00.481Z,15.80
2023-02-03T15:27:30.400Z,14.63
2023-02-03T15:29:59.163Z,21.42
2023-02-03T15:32:38.944Z,51.15
2023-02-03T15:35:10.056Z,29.75
2023-02-03T15:37:42.624Z,45.95
2023-02-03T15:40:18.281Z,42.05
2023-02-03T15:42:53.926Z,31.17
2023-02-03T15:45:23.923Z,78.20
2023-02-03T15:48:03.988Z,62.60
2023-02-03T15:50:36.683Z,45.13
2023-02-03T15:53:12.177Z,48.58
2023-02-03T15:55:44.347Z,25.35
2023-02-03T15:58:23.428Z,18.65
2023-02-03T16:00:56.825Z,34.95
2023-02-03T16:03:54.568Z,53.90
2023-02-03T16:06:39.277Z,42.75
2023-02-03T16:09:25.418Z,33.08
2023-02-03T16:12:14.425Z,25.90
2023-02-03T16:14:43.858Z,23.48
2023-02-03T16:17:34.023Z,23.17
2023-02-03T16:20:31.042Z,23.17
2023-02-03T16:23:19.689Z,42.88
2023-02-03T16:26:01.957Z,40.17
2023-02-03T16:28:47.744Z,43.03
2023-02-03T16:31:38.942Z,40.58
2023-02-03T16:34:34.314Z,25.27
2023-02-03T16:37:19.729Z,20.30
2023-02-03T16:40:05.208Z,20.88
2023-02-03T16:42:58.466Z,19.30
2023-02-03T16:45:54.116Z,22.05
2023-02-03T16:48:53.459Z,25.52
2023-02-03T16:51:21.329Z,23.23
2023-02-03T16:53:48.439Z,25.73
2023-02-03T16:56:17.855Z,27.38
2023-02-03T16:58:45.576Z,25.10
2023-02-03T17:01:12.570Z,21.95
2023-02-03T17:03:39.665Z,24.00
2023-02-03T17:06:09.509Z,22.13
2023-02-03T17:08:37.288Z,19.55
2023-02-03T17:11:09.481Z,21.80
2023-02-03T17:13:36.867Z,23.05
2023-02-03T17:16:10.083Z,32.65
2023-02-03T17:18:39.311Z,28.67
2023-02-03T17:21:12.680Z,30.35
2023-02-03T17:23:49.048Z,28.42
2023-02-03T17:26:48.283Z,35.95
2023-02-03T17:29:15.336Z,40.45
2023-02-03T17:31:42.588Z,42.58
2023-02-03T17:34:09.512Z,42.13
2023-02-03T17:36:36.375Z,31.55
2023-02-03T17:55:32.380Z,30.27
2023-02-03T17:57:59.496Z,33.85
2023-02-03T18:00:27.403Z,29.08
2023-02-03T18:02:54.330Z,24.60
2023-02-03T18:05:21.135Z,27.33
2023-02-03T18:10:15.862Z,29.35
2023-02-03T18:12:42.744Z,27.42
2023-02-03T18:15:09.768Z,26.95
2023-02-03T18:17:36.644Z,26.45
2023-02-03T18:20:04.056Z,23.15
2023-02-03T18:22:31.325Z,24.63
2023-02-03T18:24:58.804Z,22.23
2023-02-03T18:27:25.812Z,24.00
2023-02-03T18:29:52.605Z,23.85
2023-02-03T18:32:20.051Z,25.40
2023-02-03T18:34:46.977Z,24.05
2023-02-03T18:37:14.155Z,25.00
2023-02-03T18:39:41.140Z,22.80
2023-02-03T18:42:08.409Z,25.33
2023-02-03T18:44:35.675Z,50.85
2023-02-03T18:47:07.097Z,31.50
2023-02-03T18:49:36.228Z,33.67
2023-02-03T18:52:04.395Z,25.40
2023-02-03T18:54:31.241Z,24.60
2023-02-03T18:56:59.129Z,21.70
2023-02-03T18:59:26.234Z,25.58
2023-02-03T19:01:53.908Z,26.20
2023-02-03T19:04:20.945Z,24.85
2023-02-03T19:06:48.344Z,30.88
2023-02-03T19:09:17.997Z,35.72
2023-02-03T19:11:45.264Z,29.33
2023-02-03T19:14:14.280Z,27.85
2023-02-03T19:16:41.149Z,33.00
2023-02-03T19:19:08.409Z,35.72
2023-02-03T19:21:35.332Z,33.70
2023-02-03T19:24:02.107Z,35.45
2023-02-03T19:26:28.988Z,52.80
2023-02-03T19:28:56.314Z,35.72
2023-02-03T19:31:23.728Z,40.38
2023-02-03T19:33:51.004Z,40.58
2023-02-03T19:36:18.194Z,43.40
2023-02-03T19:38:44.986Z,38.55
2023-02-03T19:41:12.897Z,41.10
2023-02-03T19:43:40.245Z,41.17
2023-02-03T19:46:08.358Z,40.63
2023-02-03T19:48:35.434Z,37.00
2023-02-03T19:51:02.243Z,39.00
2023-02-03T19:53:29.085Z,28.77
2023-02-03T19:55:56.322Z,22.30
2023-02-03T19:58:26.272Z,20.80
2023-02-03T20:00:53.861Z,20.98
2023-02-03T20:03:20.769Z,23.02
2023-02-03T20:05:47.562Z,18.70
2023-02-03T20:08:15.677Z,19.95
2023-02-03T20:10:45.425Z,20.83
2023-02-03T20:13:13.214Z,16.38
2023-02-03T20:15:40.273Z,15.60
2023-02-03T20:18:07.963Z,18.80
2023-02-03T20:20:35.501Z,23.20
2023-02-03T20:23:02.446Z,32.13
2023-02-03T20:25:29.378Z,32.05
2023-02-03T20:27:58.202Z,30.67
2023-02-03T20:30:25.988Z,29.10
2023-02-03T20:32:54.669Z,25.83
2023-02-03T20:35:23.610Z,24.02
2023-02-03T20:37:50.598Z,23.00
2023-02-03T20:40:22.281Z,26.88
2023-02-03T20:42:51.087Z,28.17
2023-02-03T20:45:19.336Z,25.65
2023-02-03T20:47:46.375Z,24.38
2023-02-03T20:50:26.985Z,24.83
2023-02-03T20:52:58.272Z,23.48
2023-02-03T20:55:25.117Z,22.45
2023-02-03T20:57:54.821Z,20.75
2023-02-03T21:00:24.958Z,21.55
2023-02-03T21:03:10.815Z,18.35
2023-02-03T21:05:40.636Z,17.42
2023-02-03T21:08:19.263Z,18.08
2023-02-03T21:10:47.958Z,17.90
2023-02-03T21:13:22.663Z,17.35
2023-02-03T21:15:51.420Z,12.73
2023-02-03T21:18:44.462Z,12.82
2023-02-03T21:21:16.284Z,13.80
2023-02-03T21:23:47.363Z,13.98
2023-02-03T21:26:34.721Z,11.10
2023-02-03T21:29:01.915Z,10.68
2023-02-03T21:31:31.391Z,14.82
2023-02-03T21:34:00.377Z,10.98
2023-02-03T21:36:34.273Z,11.32
2023-02-03T21:39:01.834Z,10.90
2023-02-03T21:41:33.455Z,8.70
2023-02-03T21:44:00.679Z,6.57
2023-02-03T21:46:31.747Z,5.45
2023-02-03T21:49:02.630Z,4.20
2023-02-03T21:51:36.607Z,3.72
2023-02-03T21:54:30.599Z,2.92
2023-02-03T21:56:58.684Z,2.08
2023-02-03T21:59:36.927Z,1.90
2023-02-03T22:02:20.526Z,2.10
2023-02-03T22:04:47.444Z,2.58
2023-02-03T22:07:24.385Z,2.92
2023-02-03T22:09:51.638Z,2.00
2023-02-03T22:12:18.486Z,3.00
2023-02-03T22:14:45.401Z,2.55
2023-02-03T22:17:14.300Z,2.72
2023-02-03T22:19:41.181Z,3.25
2023-02-03T22:22:08.102Z,3.03
2023-02-03T22:24:35.077Z,3.90
2023-02-03T22:27:01.965Z,3.95
2023-02-03T22:29:29.201Z,2.88
2023-02-03T22:31:56.501Z,4.28
2023-02-03T22:34:23.960Z,6.30
2023-02-03T22:36:51.244Z,12.27
2023-02-03T22:39:18.068Z,15.48
2023-02-03T22:41:45.068Z,14.93
2023-02-03T22:44:16.115Z,20.85
2023-02-03T22:46:43.380Z,18.70
2023-02-03T22:49:10.647Z,25.25
2023-02-03T22:51:37.496Z,14.23
2023-02-03T22:54:04.427Z,27.73
2023-02-03T22:56:35.312Z,24.58
2023-02-03T22:59:02.193Z,21.95
2023-02-03T23:01:28.995Z,15.77
2023-02-03T23:03:55.804Z,20.30
2023-02-03T23:06:22.649Z,16.80
2023-02-03T23:08:49.601Z,18.48
2023-02-03T23:11:16.428Z,26.10
2023-02-03T23:13:43.680Z,22.48
2023-02-03T23:16:10.979Z,23.88
2023-02-03T23:18:37.795Z,18.58
2023-02-03T23:21:05.193Z,19.63
2023-02-03T23:23:31.980Z,19.65
2023-02-03T23:25:59.264Z,21.38
2023-02-03T23:28:26.511Z,19.83
2023-02-03T23:30:53.357Z,19.20
2023-02-03T23:33:20.256Z,22.58
2023-02-03T23:35:47.599Z,11.75
2023-02-03T23:38:16.732Z,13.88
2023-02-03T23:40:44.385Z,12.98
2023-02-03T23:43:11.230Z,16.23
2023-02-03T23:45:38.559Z,10.35
2023-02-03T23:48:06.017Z,8.30
2023-02-03T23:53:09.444Z,12.38
2023-02-03T23:55:36.531Z,8.98
2023-02-03T23:58:05.059Z,11.70
